sensor_id;sensor_type;location;lat;lon;timestamp;pressure;altitude;pressure_sealevel;temperature;humidity
69879;BME280;57161;43.136;24.706;2022-09-03T00:02:25;99205.84;;;18.20;87.26
69879;BME280;57161;43.136;24.706;2022-09-03T00:04:59;99201.72;;;18.12;86.71
69879;BME280;57161;43.136;24.706;2022-09-03T00:07:45;99221.19;;;18.27;86.07
69879;BME280;57161;43.136;24.706;2022-09-03T00:10:27;99207.34;;;18.21;86.32
69879;BME280;57161;43.136;24.706;2022-09-03T00:12:57;99191.72;;;18.20;86.29
69879;BME280;57161;43.136;24.706;2022-09-03T00:15:25;99210.16;;;18.21;86.13
69879;BME280;57161;43.136;24.706;2022-09-03T00:18:05;99214.94;;;18.28;85.97
69879;BME280;57161;43.136;24.706;2022-09-03T00:20:53;99220.44;;;18.26;85.83
69879;BME280;57161;43.136;24.706;2022-09-03T00:23:23;99219.09;;;18.27;86.73
69879;BME280;57161;43.136;24.706;2022-09-03T00:26:06;99221.63;;;18.33;85.64
69879;BME280;57161;43.136;24.706;2022-09-03T00:28:46;99212.56;;;18.25;85.76
69879;BME280;57161;43.136;24.706;2022-09-03T00:31:36;99225.31;;;18.36;85.72
69879;BME280;57161;43.136;24.706;2022-09-03T00:34:37;99222.22;;;18.32;85.71
69879;BME280;57161;43.136;24.706;2022-09-03T00:37:03;99203.47;;;18.17;85.68
69879;BME280;57161;43.136;24.706;2022-09-03T00:39:29;99219.84;;;18.28;85.38
69879;BME280;57161;43.136;24.706;2022-09-03T00:47:23;99210.03;;;18.29;84.91
69879;BME280;57161;43.136;24.706;2022-09-03T00:50:06;99215.41;;;18.25;84.99
69879;BME280;57161;43.136;24.706;2022-09-03T01:00:40;99220.44;;;18.17;85.68
69879;BME280;57161;43.136;24.706;2022-09-03T01:06:17;99222.69;;;18.18;86.43
69879;BME280;57161;43.136;24.706;2022-09-03T01:23:18;99224.19;;;18.10;86.31
69879;BME280;57161;43.136;24.706;2022-09-03T01:26:15;99234.28;;;18.13;86.01
69879;BME280;57161;43.136;24.706;2022-09-03T01:29:03;99236.97;;;18.20;85.20
69879;BME280;57161;43.136;24.706;2022-09-03T01:37:15;99242.63;;;18.30;84.85
69879;BME280;57161;43.136;24.706;2022-09-03T01:45:53;99246.34;;;18.23;84.93
69879;BME280;57161;43.136;24.706;2022-09-03T01:48:32;99246.78;;;18.29;85.16
69879;BME280;57161;43.136;24.706;2022-09-03T01:51:17;99228.34;;;18.18;84.75
69879;BME280;57161;43.136;24.706;2022-09-03T01:54:28;99241.13;;;18.29;83.64
69879;BME280;57161;43.136;24.706;2022-09-03T01:57:22;99230.09;;;18.33;83.59
69879;BME280;57161;43.136;24.706;2022-09-03T01:59:55;99241.28;;;18.41;83.40
69879;BME280;57161;43.136;24.706;2022-09-03T02:02:26;99237.38;;;18.36;82.41
69879;BME280;57161;43.136;24.706;2022-09-03T02:05:14;99233.38;;;18.20;83.61
69879;BME280;57161;43.136;24.706;2022-09-03T02:07:44;99240.25;;;18.17;84.26
69879;BME280;57161;43.136;24.706;2022-09-03T02:10:14;99241.88;;;18.20;83.89
69879;BME280;57161;43.136;24.706;2022-09-03T02:12:42;99242.00;;;18.22;84.26
69879;BME280;57161;43.136;24.706;2022-09-03T02:15:17;99240.56;;;18.11;84.01
69879;BME280;57161;43.136;24.706;2022-09-03T02:17:46;99241.13;;;18.19;84.46
69879;BME280;57161;43.136;24.706;2022-09-03T02:20:18;99240.56;;;18.11;84.33
69879;BME280;57161;43.136;24.706;2022-09-03T02:22:47;99250.97;;;18.09;84.78
69879;BME280;57161;43.136;24.706;2022-09-03T02:25:15;99239.66;;;18.09;83.94
69879;BME280;57161;43.136;24.706;2022-09-03T02:27:41;99245.75;;;18.05;84.41
69879;BME280;57161;43.136;24.706;2022-09-03T02:30:08;99246.50;;;18.06;84.71
69879;BME280;57161;43.136;24.706;2022-09-03T02:32:34;99247.41;;;18.08;84.40
69879;BME280;57161;43.136;24.706;2022-09-03T02:35:00;99244.13;;;18.12;84.20
69879;BME280;57161;43.136;24.706;2022-09-03T02:37:25;99246.50;;;18.15;84.52
69879;BME280;57161;43.136;24.706;2022-09-03T02:39:51;99239.81;;;18.11;84.62
69879;BME280;57161;43.136;24.706;2022-09-03T02:42:17;99252.28;;;18.27;84.87
69879;BME280;57161;43.136;24.706;2022-09-03T02:44:53;99242.19;;;18.24;84.56
69879;BME280;57161;43.136;24.706;2022-09-03T02:47:20;99250.81;;;18.26;83.49
69879;BME280;57161;43.136;24.706;2022-09-03T02:49:48;99251.84;;;18.21;83.41
69879;BME280;57161;43.136;24.706;2022-09-03T02:52:14;99251.69;;;18.19;83.33
69879;BME280;57161;43.136;24.706;2022-09-03T02:54:40;99262.56;;;18.13;83.44
69879;BME280;57161;43.136;24.706;2022-09-03T02:57:13;99246.06;;;17.99;83.58
69879;BME280;57161;43.136;24.706;2022-09-03T02:59:39;99261.69;;;18.10;83.34
69879;BME280;57161;43.136;24.706;2022-09-03T03:02:06;99261.41;;;18.06;83.29
69879;BME280;57161;43.136;24.706;2022-09-03T03:04:32;99248.13;;;17.99;83.50
69879;BME280;57161;43.136;24.706;2022-09-03T03:06:58;99252.47;;;18.10;83.43
69879;BME280;57161;43.136;24.706;2022-09-03T03:09:23;99250.84;;;18.07;83.41
69879;BME280;57161;43.136;24.706;2022-09-03T03:11:49;99262.72;;;18.15;83.15
69879;BME280;57161;43.136;24.706;2022-09-03T03:14:16;99264.06;;;18.14;82.14
69879;BME280;57161;43.136;24.706;2022-09-03T03:16:42;99260.34;;;18.02;82.29
69879;BME280;57161;43.136;24.706;2022-09-03T03:19:07;99263.75;;;18.00;82.40
69879;BME280;57161;43.136;24.706;2022-09-03T03:21:33;99269.88;;;17.96;82.24
69879;BME280;57161;43.136;24.706;2022-09-03T03:24:00;99247.84;;;17.85;82.62
69879;BME280;57161;43.136;24.706;2022-09-03T03:26:26;99262.13;;;17.97;82.26
69879;BME280;57161;43.136;24.706;2022-09-03T03:28:55;99248.00;;;17.97;82.21
69879;BME280;57161;43.136;24.706;2022-09-03T03:31:21;99245.75;;;17.95;82.16
69879;BME280;57161;43.136;24.706;2022-09-03T03:33:55;99254.97;;;18.06;81.72
69879;BME280;57161;43.136;24.706;2022-09-03T03:36:22;99255.88;;;17.98;81.73
69879;BME280;57161;43.136;24.706;2022-09-03T03:38:48;99255.00;;;17.96;81.47
69879;BME280;57161;43.136;24.706;2022-09-03T03:41:20;99271.94;;;18.06;81.44
69879;BME280;57161;43.136;24.706;2022-09-03T03:43:47;99264.78;;;18.05;81.79
69879;BME280;57161;43.136;24.706;2022-09-03T03:46:13;99271.34;;;17.97;81.32
69879;BME280;57161;43.136;24.706;2022-09-03T03:48:41;99287.56;;;17.97;81.38
69879;BME280;57161;43.136;24.706;2022-09-03T03:51:07;99277.13;;;17.80;82.50
69879;BME280;57161;43.136;24.706;2022-09-03T03:53:34;99271.63;;;17.82;82.38
69879;BME280;57161;43.136;24.706;2022-09-03T03:56:02;99270.00;;;17.79;82.66
69879;BME280;57161;43.136;24.706;2022-09-03T03:58:30;99274.31;;;17.80;82.35
69879;BME280;57161;43.136;24.706;2022-09-03T04:01:07;99274.00;;;17.86;82.32
69879;BME280;57161;43.136;24.706;2022-09-03T04:03:36;99271.94;;;17.86;82.17
69879;BME280;57161;43.136;24.706;2022-09-03T04:06:03;99268.50;;;17.88;82.00
69879;BME280;57161;43.136;24.706;2022-09-03T04:08:30;99270.16;;;17.81;82.16
69879;BME280;57161;43.136;24.706;2022-09-03T04:10:59;99256.75;;;17.72;82.06
69879;BME280;57161;43.136;24.706;2022-09-03T04:13:29;99267.16;;;17.79;81.87
69879;BME280;57161;43.136;24.706;2022-09-03T04:16:06;99263.13;;;17.73;81.94
69879;BME280;57161;43.136;24.706;2022-09-03T04:18:33;99256.88;;;17.64;81.86
69879;BME280;57161;43.136;24.706;2022-09-03T04:21:08;99244.94;;;17.56;81.77
69879;BME280;57161;43.136;24.706;2022-09-03T04:23:36;99257.00;;;17.66;81.08
69879;BME280;57161;43.136;24.706;2022-09-03T04:26:03;99267.75;;;17.68;81.34
69879;BME280;57161;43.136;24.706;2022-09-03T04:28:28;99278.88;;;17.66;82.07
69879;BME280;57161;43.136;24.706;2022-09-03T04:30:54;99273.22;;;17.66;81.92
69879;BME280;57161;43.136;24.706;2022-09-03T04:33:24;99281.69;;;17.66;81.27
69879;BME280;57161;43.136;24.706;2022-09-03T04:35:49;99269.66;;;17.65;81.47
69879;BME280;57161;43.136;24.706;2022-09-03T04:38:15;99279.06;;;17.78;81.16
69879;BME280;57161;43.136;24.706;2022-09-03T04:40:41;99272.66;;;17.87;80.86
69879;BME280;57161;43.136;24.706;2022-09-03T04:43:06;99276.41;;;17.80;81.25
69879;BME280;57161;43.136;24.706;2022-09-03T04:45:32;99279.66;;;17.76;80.27
69879;BME280;57161;43.136;24.706;2022-09-03T04:48:01;99286.06;;;17.77;81.13
69879;BME280;57161;43.136;24.706;2022-09-03T04:50:27;99284.88;;;17.80;80.72
69879;BME280;57161;43.136;24.706;2022-09-03T04:53:01;99291.25;;;17.80;81.25
69879;BME280;57161;43.136;24.706;2022-09-03T04:55:31;99279.81;;;17.78;80.75
69879;BME280;57161;43.136;24.706;2022-09-03T04:57:58;99294.97;;;17.83;81.04
69879;BME280;57161;43.136;24.706;2022-09-03T05:00:23;99277.22;;;17.63;81.29
69879;BME280;57161;43.136;24.706;2022-09-03T05:02:49;99300.47;;;17.81;81.81
69879;BME280;57161;43.136;24.706;2022-09-03T05:05:16;99300.81;;;17.94;81.83
69879;BME280;57161;43.136;24.706;2022-09-03T05:07:42;99289.34;;;18.02;80.66
69879;BME280;57161;43.136;24.706;2022-09-03T05:10:10;99309.00;;;18.10;79.89
69879;BME280;57161;43.136;24.706;2022-09-03T05:12:40;99305.59;;;18.11;80.02
69879;BME280;57161;43.136;24.706;2022-09-03T05:15:06;99308.69;;;18.15;79.67
69879;BME280;57161;43.136;24.706;2022-09-03T05:17:32;99313.63;;;18.15;79.95
69879;BME280;57161;43.136;24.706;2022-09-03T05:19:57;99299.16;;;18.01;80.11
69879;BME280;57161;43.136;24.706;2022-09-03T05:22:23;99318.06;;;18.18;79.48
69879;BME280;57161;43.136;24.706;2022-09-03T05:24:48;99317.06;;;18.23;78.84
69879;BME280;57161;43.136;24.706;2022-09-03T05:27:14;99326.41;;;18.16;79.32
69879;BME280;57161;43.136;24.706;2022-09-03T05:29:43;99326.69;;;18.20;78.93
69879;BME280;57161;43.136;24.706;2022-09-03T05:32:10;99328.78;;;18.19;79.74
69879;BME280;57161;43.136;24.706;2022-09-03T05:34:37;99333.41;;;18.34;79.15
69879;BME280;57161;43.136;24.706;2022-09-03T05:37:03;99339.34;;;18.38;78.54
69879;BME280;57161;43.136;24.706;2022-09-03T05:39:28;99346.97;;;18.45;78.68
69879;BME280;57161;43.136;24.706;2022-09-03T05:41:54;99338.91;;;18.51;78.11
69879;BME280;57161;43.136;24.706;2022-09-03T05:44:19;99344.13;;;18.55;77.82
69879;BME280;57161;43.136;24.706;2022-09-03T05:46:48;99355.59;;;18.76;76.75
69879;BME280;57161;43.136;24.706;2022-09-03T05:49:16;99357.97;;;18.70;77.21
69879;BME280;57161;43.136;24.706;2022-09-03T05:51:41;99353.97;;;18.73;76.66
69879;BME280;57161;43.136;24.706;2022-09-03T05:54:08;99345.34;;;18.71;76.56
69879;BME280;57161;43.136;24.706;2022-09-03T05:56:35;99358.56;;;18.78;76.93
69879;BME280;57161;43.136;24.706;2022-09-03T05:59:04;99364.06;;;18.86;76.28
69879;BME280;57161;43.136;24.706;2022-09-03T06:01:33;99355.88;;;18.80;75.86
69879;BME280;57161;43.136;24.706;2022-09-03T06:04:00;99361.69;;;18.92;75.96
69879;BME280;57161;43.136;24.706;2022-09-03T06:06:27;99358.41;;;18.96;75.32
69879;BME280;57161;43.136;24.706;2022-09-03T06:08:57;99360.81;;;18.89;75.24
69879;BME280;57161;43.136;24.706;2022-09-03T06:11:24;99375.97;;;18.94;75.42
69879;BME280;57161;43.136;24.706;2022-09-03T06:13:53;99367.50;;;18.94;75.62
69879;BME280;57161;43.136;24.706;2022-09-03T06:16:18;99379.69;;;18.87;75.30
69879;BME280;57161;43.136;24.706;2022-09-03T06:18:43;99379.88;;;18.79;75.71
69879;BME280;57161;43.136;24.706;2022-09-03T06:21:09;99372.88;;;18.80;76.37
69879;BME280;57161;43.136;24.706;2022-09-03T06:23:34;99367.06;;;18.78;76.20
69879;BME280;57161;43.136;24.706;2022-09-03T06:26:09;99385.38;;;18.87;76.16
69879;BME280;57161;43.136;24.706;2022-09-03T06:28:36;99378.97;;;18.86;76.24
69879;BME280;57161;43.136;24.706;2022-09-03T06:31:04;99392.38;;;18.86;76.00
69879;BME280;57161;43.136;24.706;2022-09-03T06:33:32;99393.28;;;18.79;76.26
69879;BME280;57161;43.136;24.706;2022-09-03T06:35:59;99399.25;;;18.64;76.82
69879;BME280;57161;43.136;24.706;2022-09-03T06:38:27;99398.94;;;18.69;76.79
69879;BME280;57161;43.136;24.706;2022-09-03T06:40:58;99398.19;;;18.69;76.50
69879;BME280;57161;43.136;24.706;2022-09-03T06:43:29;99391.94;;;18.80;76.37
69879;BME280;57161;43.136;24.706;2022-09-03T06:45:59;99396.41;;;18.83;75.79
69879;BME280;57161;43.136;24.706;2022-09-03T06:48:26;99399.84;;;18.91;75.80
69879;BME280;57161;43.136;24.706;2022-09-03T06:53:22;99392.03;;;19.21;74.27
69879;BME280;57161;43.136;24.706;2022-09-03T06:56:05;99392.78;;;19.11;74.38
69879;BME280;57161;43.136;24.706;2022-09-03T06:58:32;99393.06;;;19.25;74.36
69879;BME280;57161;43.136;24.706;2022-09-03T07:01:04;99392.25;;;19.34;74.89
69879;BME280;57161;43.136;24.706;2022-09-03T07:03:34;99402.50;;;19.49;74.54
69879;BME280;57161;43.136;24.706;2022-09-03T07:06:08;99398.66;;;19.54;74.19
69879;BME280;57161;43.136;24.706;2022-09-03T07:08:34;99397.44;;;19.57;72.48
69879;BME280;57161;43.136;24.706;2022-09-03T07:11:06;99409.84;;;19.42;73.27
69879;BME280;57161;43.136;24.706;2022-09-03T07:13:39;99400.88;;;19.46;73.00
69879;BME280;57161;43.136;24.706;2022-09-03T07:16:07;99416.19;;;19.72;73.15
69879;BME280;57161;43.136;24.706;2022-09-03T07:18:33;99415.31;;;19.69;72.39
69879;BME280;57161;43.136;24.706;2022-09-03T07:21:05;99421.56;;;19.68;71.45
69879;BME280;57161;43.136;24.706;2022-09-03T07:23:31;99411.44;;;19.65;72.37
69879;BME280;57161;43.136;24.706;2022-09-03T07:26:03;99421.72;;;19.70;72.28
69879;BME280;57161;43.136;24.706;2022-09-03T07:28:30;99422.50;;;19.61;72.45
69879;BME280;57161;43.136;24.706;2022-09-03T07:31:14;99424.91;;;19.45;73.54
69879;BME280;57161;43.136;24.706;2022-09-03T07:33:41;99421.50;;;19.37;72.46
69879;BME280;57161;43.136;24.706;2022-09-03T07:36:14;99418.66;;;19.37;73.13
69879;BME280;57161;43.136;24.706;2022-09-03T07:38:41;99427.31;;;19.29;73.03
69879;BME280;57161;43.136;24.706;2022-09-03T07:41:09;99427.16;;;19.37;73.27
69879;BME280;57161;43.136;24.706;2022-09-03T07:43:40;99418.38;;;19.33;73.59
69879;BME280;57161;43.136;24.706;2022-09-03T07:46:08;99433.13;;;19.41;73.96
69879;BME280;57161;43.136;24.706;2022-09-03T07:48:40;99432.97;;;19.39;74.41
69879;BME280;57161;43.136;24.706;2022-09-03T07:51:06;99440.97;;;19.52;72.86
69879;BME280;57161;43.136;24.706;2022-09-03T07:53:31;99445.91;;;19.52;72.49
69879;BME280;57161;43.136;24.706;2022-09-03T07:56:05;99454.28;;;19.40;73.57
69879;BME280;57161;43.136;24.706;2022-09-03T07:58:32;99450.53;;;19.47;73.55
69879;BME280;57161;43.136;24.706;2022-09-03T08:01:02;99444.88;;;19.47;72.71
69879;BME280;57161;43.136;24.706;2022-09-03T08:03:28;99438.19;;;19.42;72.93
69879;BME280;57161;43.136;24.706;2022-09-03T08:05:53;99443.66;;;19.60;72.35
69879;BME280;57161;43.136;24.706;2022-09-03T08:08:24;99433.22;;;19.62;72.88
69879;BME280;57161;43.136;24.706;2022-09-03T08:10:49;99437.81;;;19.67;72.39
69879;BME280;57161;43.136;24.706;2022-09-03T08:13:15;99436.38;;;19.57;72.52
69879;BME280;57161;43.136;24.706;2022-09-03T08:15:40;99443.19;;;19.73;72.24
69879;BME280;57161;43.136;24.706;2022-09-03T08:18:07;99443.25;;;19.85;72.08
69879;BME280;57161;43.136;24.706;2022-09-03T08:20:32;99437.09;;;19.98;71.71
69879;BME280;57161;43.136;24.706;2022-09-03T08:23:01;99439.88;;;20.07;70.99
69879;BME280;57161;43.136;24.706;2022-09-03T08:25:28;99439.63;;;20.03;70.90
69879;BME280;57161;43.136;24.706;2022-09-03T08:27:53;99446.19;;;19.96;71.35
69879;BME280;57161;43.136;24.706;2022-09-03T08:30:19;99441.13;;;19.95;72.32
69879;BME280;57161;43.136;24.706;2022-09-03T08:32:45;99429.88;;;20.06;71.36
69879;BME280;57161;43.136;24.706;2022-09-03T08:35:11;99441.03;;;20.14;70.89
69879;BME280;57161;43.136;24.706;2022-09-03T08:37:37;99442.50;;;20.15;71.20
69879;BME280;57161;43.136;24.706;2022-09-03T08:40:03;99438.06;;;20.12;70.58
69879;BME280;57161;43.136;24.706;2022-09-03T08:45:00;99426.78;;;20.02;70.96
69879;BME280;57161;43.136;24.706;2022-09-03T08:50:24;99449.84;;;19.87;71.50
69879;BME280;57161;43.136;24.706;2022-09-03T08:55:28;99440.59;;;19.87;71.98
69879;BME280;57161;43.136;24.706;2022-09-03T08:58:05;99436.41;;;19.88;72.11
69879;BME280;57161;43.136;24.706;2022-09-03T09:06:28;99438.13;;;19.52;73.06
69879;BME280;57161;43.136;24.706;2022-09-03T09:15:09;99448.75;;;19.92;71.10
69879;BME280;57161;43.136;24.706;2022-09-03T09:23:06;99440.75;;;19.79;73.19
69879;BME280;57161;43.136;24.706;2022-09-03T09:25:35;99440.28;;;19.83;71.84
69879;BME280;57161;43.136;24.706;2022-09-03T09:28:15;99438.56;;;19.99;71.70
69879;BME280;57161;43.136;24.706;2022-09-03T09:30:41;99442.63;;;19.96;71.33
69879;BME280;57161;43.136;24.706;2022-09-03T09:33:08;99428.78;;;19.90;70.71
69879;BME280;57161;43.136;24.706;2022-09-03T09:35:34;99445.91;;;20.23;70.89
69879;BME280;57161;43.136;24.706;2022-09-03T09:37:59;99440.91;;;20.33;69.69
69879;BME280;57161;43.136;24.706;2022-09-03T09:43:16;99463.91;;;20.37;69.74
69879;BME280;57161;43.136;24.706;2022-09-03T09:45:51;99452.09;;;20.10;70.58
69879;BME280;57161;43.136;24.706;2022-09-03T09:48:27;99455.59;;;19.99;71.12
69879;BME280;57161;43.136;24.706;2022-09-03T09:53:30;99452.84;;;20.11;71.32
69879;BME280;57161;43.136;24.706;2022-09-03T09:55:57;99468.53;;;20.33;70.70
69879;BME280;57161;43.136;24.706;2022-09-03T09:58:25;99468.22;;;20.38;69.96
69879;BME280;57161;43.136;24.706;2022-09-03T10:01:03;99473.47;;;20.32;69.91
69879;BME280;57161;43.136;24.706;2022-09-03T10:03:40;99465.00;;;20.54;69.82
69879;BME280;57161;43.136;24.706;2022-09-03T10:06:13;99478.38;;;20.42;69.86
69879;BME280;57161;43.136;24.706;2022-09-03T10:09:19;99477.78;;;20.43;70.66
69879;BME280;57161;43.136;24.706;2022-09-03T10:14:28;99478.72;;;20.57;69.17
69879;BME280;57161;43.136;24.706;2022-09-03T10:17:20;99480.69;;;20.55;69.63
69879;BME280;57161;43.136;24.706;2022-09-03T10:20:04;99486.75;;;20.61;69.37
69879;BME280;57161;43.136;24.706;2022-09-03T10:22:54;99489.34;;;20.26;70.50
69879;BME280;57161;43.136;24.706;2022-09-03T10:25:21;99488.63;;;20.16;70.37
69879;BME280;57161;43.136;24.706;2022-09-03T10:27:50;99495.06;;;20.16;70.51
69879;BME280;57161;43.136;24.706;2022-09-03T10:30:18;99493.63;;;20.05;70.73
69879;BME280;57161;43.136;24.706;2022-09-03T10:35:34;99489.47;;;19.97;71.24
69879;BME280;57161;43.136;24.706;2022-09-03T10:40:44;99489.38;;;20.47;70.89
69879;BME280;57161;43.136;24.706;2022-09-03T10:50:58;99500.81;;;21.02;67.83
69879;BME280;57161;43.136;24.706;2022-09-03T10:56:18;99493.50;;;21.76;66.19
69879;BME280;57161;43.136;24.706;2022-09-03T11:07:04;99497.63;;;21.85;65.50
69879;BME280;57161;43.136;24.706;2022-09-03T11:09:40;99498.69;;;21.68;65.71
69879;BME280;57161;43.136;24.706;2022-09-03T11:12:12;99491.00;;;21.59;66.39
69879;BME280;57161;43.136;24.706;2022-09-03T11:14:58;99499.56;;;21.26;66.86
69879;BME280;57161;43.136;24.706;2022-09-03T11:17:41;99487.19;;;21.21;67.75
69879;BME280;57161;43.136;24.706;2022-09-03T11:20:17;99487.09;;;21.31;67.75
69879;BME280;57161;43.136;24.706;2022-09-03T11:22:45;99495.22;;;21.58;66.76
69879;BME280;57161;43.136;24.706;2022-09-03T11:25:13;99487.69;;;21.74;66.59
69879;BME280;57161;43.136;24.706;2022-09-03T11:33:32;99499.31;;;21.67;64.91
69879;BME280;57161;43.136;24.706;2022-09-03T11:35:59;99488.66;;;21.55;65.97
69879;BME280;57161;43.136;24.706;2022-09-03T11:38:28;99492.47;;;21.48;66.39
69879;BME280;57161;43.136;24.706;2022-09-03T11:41:22;99499.16;;;21.53;66.49
69879;BME280;57161;43.136;24.706;2022-09-03T11:43:50;99488.34;;;21.07;66.88
69879;BME280;57161;43.136;24.706;2022-09-03T11:48:55;99503.84;;;21.15;67.32
69879;BME280;57161;43.136;24.706;2022-09-03T11:54:24;99516.38;;;21.01;68.73
69879;BME280;57161;43.136;24.706;2022-09-03T11:57:02;99510.84;;;21.14;68.54
69879;BME280;57161;43.136;24.706;2022-09-03T11:59:30;99504.78;;;21.08;67.90
69879;BME280;57161;43.136;24.706;2022-09-03T12:04:25;99505.00;;;21.01;68.68
69879;BME280;57161;43.136;24.706;2022-09-03T12:10:54;99512.19;;;21.02;68.83
69879;BME280;57161;43.136;24.706;2022-09-03T12:16:16;99516.75;;;20.43;71.92
69879;BME280;57161;43.136;24.706;2022-09-03T12:18:46;99498.22;;;20.11;73.67
69879;BME280;57161;43.136;24.706;2022-09-03T12:21:17;99513.16;;;20.11;73.50
69879;BME280;57161;43.136;24.706;2022-09-03T12:23:45;99509.31;;;19.97;73.94
69879;BME280;57161;43.136;24.706;2022-09-03T12:26:18;99511.53;;;20.08;74.26
69879;BME280;57161;43.136;24.706;2022-09-03T12:28:53;99501.56;;;19.97;74.93
69879;BME280;57161;43.136;24.706;2022-09-03T12:31:25;99496.97;;;19.92;75.30
69879;BME280;57161;43.136;24.706;2022-09-03T12:34:02;99514.69;;;20.02;74.60
69879;BME280;57161;43.136;24.706;2022-09-03T12:36:37;99519.97;;;19.87;75.32
69879;BME280;57161;43.136;24.706;2022-09-03T12:39:21;99517.28;;;19.89;75.46
69879;BME280;57161;43.136;24.706;2022-09-03T12:42:09;99524.84;;;19.96;75.51
69879;BME280;57161;43.136;24.706;2022-09-03T12:44:39;99522.03;;;19.96;75.19
69879;BME280;57161;43.136;24.706;2022-09-03T12:47:17;99520.50;;;20.04;75.19
69879;BME280;57161;43.136;24.706;2022-09-03T12:49:45;99522.88;;;20.08;75.10
69879;BME280;57161;43.136;24.706;2022-09-03T12:55:41;99516.19;;;20.03;74.55
69879;BME280;57161;43.136;24.706;2022-09-03T12:57:47;99519.03;;;19.94;75.11
69879;BME280;57161;43.136;24.706;2022-09-03T13:00:16;99516.19;;;20.03;75.02
69879;BME280;57161;43.136;24.706;2022-09-03T13:03:00;99508.72;;;19.98;74.30
69879;BME280;57161;43.136;24.706;2022-09-03T13:08:31;99517.09;;;19.96;75.09
69879;BME280;57161;43.136;24.706;2022-09-03T13:11:02;99503.94;;;20.01;74.68
69879;BME280;57161;43.136;24.706;2022-09-03T13:13:31;99512.59;;;20.03;75.16
69879;BME280;57161;43.136;24.706;2022-09-03T13:38:30;99484.25;;;21.31;69.07
69879;BME280;57161;43.136;24.706;2022-09-03T13:41:01;99495.44;;;21.17;69.11
69879;BME280;57161;43.136;24.706;2022-09-03T13:43:38;99487.53;;;21.16;69.59
69879;BME280;57161;43.136;24.706;2022-09-03T13:46:15;99487.75;;;21.41;69.50
69879;BME280;57161;43.136;24.706;2022-09-03T13:48:43;99489.00;;;21.38;68.86
69879;BME280;57161;43.136;24.706;2022-09-03T13:51:38;99489.50;;;21.46;68.00
69879;BME280;57161;43.136;24.706;2022-09-03T13:54:18;99487.59;;;21.27;69.09
69879;BME280;57161;43.136;24.706;2022-09-03T13:57:00;99496.78;;;21.38;69.46
69879;BME280;57161;43.136;24.706;2022-09-03T14:27:09;99476.38;;;21.08;70.58
69879;BME280;57161;43.136;24.706;2022-09-03T14:29:35;99471.94;;;21.05;70.52
69879;BME280;57161;43.136;24.706;2022-09-03T14:32:21;99483.06;;;21.13;70.27
69879;BME280;57161;43.136;24.706;2022-09-03T14:56:21;99501.06;;;21.72;69.08
69879;BME280;57161;43.136;24.706;2022-09-03T15:01:39;99514.69;;;21.85;68.12
69879;BME280;57161;43.136;24.706;2022-09-03T15:12:48;99510.44;;;21.74;67.80
69879;BME280;57161;43.136;24.706;2022-09-03T15:18:09;99507.94;;;21.57;68.69
69879;BME280;57161;43.136;24.706;2022-09-03T15:20:49;99515.59;;;21.54;68.94
69879;BME280;57161;43.136;24.706;2022-09-03T15:23:31;99518.22;;;21.62;68.61
69879;BME280;57161;43.136;24.706;2022-09-03T15:29:33;99503.41;;;21.75;67.59
69879;BME280;57161;43.136;24.706;2022-09-03T15:35:09;99505.88;;;21.69;67.89
69879;BME280;57161;43.136;24.706;2022-09-03T15:37:46;99526.53;;;21.70;67.84
69879;BME280;57161;43.136;24.706;2022-09-03T15:42:55;99509.38;;;21.35;70.33
69879;BME280;57161;43.136;24.706;2022-09-03T15:45:36;99525.28;;;21.28;70.68
69879;BME280;57161;43.136;24.706;2022-09-03T15:53:35;99524.41;;;21.04;71.04
69879;BME280;57161;43.136;24.706;2022-09-03T15:56:33;99521.84;;;21.08;70.71
69879;BME280;57161;43.136;24.706;2022-09-03T15:59:17;99525.06;;;21.14;71.41
69879;BME280;57161;43.136;24.706;2022-09-03T16:02:04;99515.41;;;21.08;71.13
69879;BME280;57161;43.136;24.706;2022-09-03T16:07:25;99522.56;;;21.09;70.93
69879;BME280;57161;43.136;24.706;2022-09-03T16:10:15;99525.53;;;21.11;71.31
69879;BME280;57161;43.136;24.706;2022-09-03T16:13:04;99525.47;;;21.20;71.12
69879;BME280;57161;43.136;24.706;2022-09-03T16:15:42;99527.50;;;21.08;70.44
69879;BME280;57161;43.136;24.706;2022-09-03T16:21:03;99515.72;;;20.69;71.33
69879;BME280;57161;43.136;24.706;2022-09-03T16:29:13;99528.47;;;20.27;74.89
69879;BME280;57161;43.136;24.706;2022-09-03T16:38:25;99533.16;;;19.63;79.51
69879;BME280;57161;43.136;24.706;2022-09-03T16:40:32;99540.31;;;19.44;80.24
69879;BME280;57161;43.136;24.706;2022-09-03T16:46:24;99537.19;;;19.40;80.92
69879;BME280;57161;43.136;24.706;2022-09-03T16:51:38;99531.25;;;19.27;81.04
69879;BME280;57161;43.136;24.706;2022-09-03T16:57:16;99546.44;;;19.31;81.17
69879;BME280;57161;43.136;24.706;2022-09-03T17:00:06;99551.97;;;19.29;81.21
69879;BME280;57161;43.136;24.706;2022-09-03T17:08:13;99561.97;;;19.11;81.95
69879;BME280;57161;43.136;24.706;2022-09-03T17:11:06;99571.19;;;19.11;82.16
69879;BME280;57161;43.136;24.706;2022-09-03T17:21:09;99572.09;;;19.33;81.01
69879;BME280;57161;43.136;24.706;2022-09-03T17:26:51;99578.22;;;19.39;80.71
69879;BME280;57161;43.136;24.706;2022-09-03T17:29:46;99578.22;;;19.30;81.15
69879;BME280;57161;43.136;24.706;2022-09-03T17:40:36;99587.13;;;18.87;83.09
69879;BME280;57161;43.136;24.706;2022-09-03T17:43:17;99592.91;;;18.80;83.67
69879;BME280;57161;43.136;24.706;2022-09-03T17:51:04;99600.91;;;18.64;84.73
69879;BME280;57161;43.136;24.706;2022-09-03T17:56:09;99601.09;;;18.85;83.47
69879;BME280;57161;43.136;24.706;2022-09-03T18:01:25;99608.06;;;18.65;84.47
69879;BME280;57161;43.136;24.706;2022-09-03T18:04:13;99608.66;;;18.64;84.36
69879;BME280;57161;43.136;24.706;2022-09-03T18:11:47;99617.06;;;18.54;85.02